sensor_id;sensor_type;location;lat;lon;timestamp;P1;durP1;ratioP1;P2;durP2;ratioP2
15159;SDS011;7680;48.800;9.680;2023-05-10T00:00:43;2.88;;;2.67;;
15159;SDS011;7680;48.800;9.680;2023-05-10T00:03:16;3.50;;;3.30;;
15159;SDS011;7680;48.800;9.680;2023-05-10T00:05:50;3.85;;;3.42;;
15159;SDS011;7680;48.800;9.680;2023-05-10T00:08:23;3.80;;;3.50;;
15159;SDS011;7680;48.800;9.680;2023-05-10T00:10:57;4.10;;;3.72;;
15159;SDS011;7680;48.800;9.680;2023-05-10T00:13:30;3.70;;;3.40;;
15159;SDS011;7680;48.800;9.680;2023-05-10T00:16:03;4.03;;;3.63;;
15159;SDS011;7680;48.800;9.680;2023-05-10T00:18:37;3.90;;;3.63;;
15159;SDS011;7680;48.800;9.680;2023-05-10T00:21:11;3.65;;;3.35;;
15159;SDS011;7680;48.800;9.680;2023-05-10T00:23:44;3.65;;;3.35;;
15159;SDS011;7680;48.800;9.680;2023-05-10T00:26:17;3.47;;;3.17;;
15159;SDS011;7680;48.800;9.680;2023-05-10T00:28:51;3.50;;;3.30;;
15159;SDS011;7680;48.800;9.680;2023-05-10T00:31:24;3.67;;;3.38;;
15159;SDS011;7680;48.800;9.680;2023-05-10T00:33:57;4.00;;;3.53;;
15159;SDS011;7680;48.800;9.680;2023-05-10T00:36:31;4.40;;;4.00;;
15159;SDS011;7680;48.800;9.680;2023-05-10T00:39:04;4.53;;;3.80;;
15159;SDS011;7680;48.800;9.680;2023-05-10T00:41:37;4.18;;;3.47;;
15159;SDS011;7680;48.800;9.680;2023-05-10T00:44:10;3.88;;;3.58;;
15159;SDS011;7680;48.800;9.680;2023-05-10T00:46:43;4.15;;;3.75;;
15159;SDS011;7680;48.800;9.680;2023-05-10T00:49:17;4.13;;;3.80;;
15159;SDS011;7680;48.800;9.680;2023-05-10T00:51:51;3.75;;;3.50;;
15159;SDS011;7680;48.800;9.680;2023-05-10T00:54:24;4.43;;;4.03;;
15159;SDS011;7680;48.800;9.680;2023-05-10T00:56:57;2.70;;;2.50;;
15159;SDS011;7680;48.800;9.680;2023-05-10T00:59:30;2.28;;;2.08;;
15159;SDS011;7680;48.800;9.680;2023-05-10T01:02:04;2.13;;;1.90;;
15159;SDS011;7680;48.800;9.680;2023-05-10T01:04:37;2.00;;;1.90;;
15159;SDS011;7680;48.800;9.680;2023-05-10T01:07:12;1.70;;;1.60;;
15159;SDS011;7680;48.800;9.680;2023-05-10T01:09:45;1.85;;;1.75;;
15159;SDS011;7680;48.800;9.680;2023-05-10T01:12:18;1.70;;;1.60;;
15159;SDS011;7680;48.800;9.680;2023-05-10T01:14:52;1.52;;;1.45;;
15159;SDS011;7680;48.800;9.680;2023-05-10T01:17:26;1.40;;;1.38;;
15159;SDS011;7680;48.800;9.680;2023-05-10T01:20:00;1.38;;;1.38;;
15159;SDS011;7680;48.800;9.680;2023-05-10T01:22:41;1.60;;;1.40;;
15159;SDS011;7680;48.800;9.680;2023-05-10T01:25:35;1.40;;;1.30;;
15159;SDS011;7680;48.800;9.680;2023-05-10T01:28:49;1.60;;;1.50;;
15159;SDS011;7680;48.800;9.680;2023-05-10T01:32:07;1.30;;;1.30;;
15159;SDS011;7680;48.800;9.680;2023-05-10T01:34:52;1.10;;;1.10;;
15159;SDS011;7680;48.800;9.680;2023-05-10T01:37:35;1.65;;;1.10;;
15159;SDS011;7680;48.800;9.680;2023-05-10T01:40:17;2.30;;;1.20;;
15159;SDS011;7680;48.800;9.680;2023-05-10T01:42:59;1.33;;;1.25;;
15159;SDS011;7680;48.800;9.680;2023-05-10T01:45:37;1.35;;;1.10;;
15159;SDS011;7680;48.800;9.680;2023-05-10T01:48:17;1.05;;;0.98;;
15159;SDS011;7680;48.800;9.680;2023-05-10T01:50:52;1.63;;;1.42;;
15159;SDS011;7680;48.800;9.680;2023-05-10T01:53:26;2.42;;;1.27;;
15159;SDS011;7680;48.800;9.680;2023-05-10T01:56:01;1.30;;;1.30;;
15159;SDS011;7680;48.800;9.680;2023-05-10T01:58:35;2.28;;;1.20;;
15159;SDS011;7680;48.800;9.680;2023-05-10T02:01:13;1.20;;;1.10;;
15159;SDS011;7680;48.800;9.680;2023-05-10T02:03:48;1.42;;;1.30;;
15159;SDS011;7680;48.800;9.680;2023-05-10T02:06:23;3.08;;;1.30;;
15159;SDS011;7680;48.800;9.680;2023-05-10T02:08:57;1.45;;;1.35;;
15159;SDS011;7680;48.800;9.680;2023-05-10T02:11:32;1.38;;;1.38;;
15159;SDS011;7680;48.800;9.680;2023-05-10T02:14:06;1.38;;;1.38;;
15159;SDS011;7680;48.800;9.680;2023-05-10T02:16:42;1.77;;;1.65;;
15159;SDS011;7680;48.800;9.680;2023-05-10T02:19:18;1.40;;;1.40;;
15159;SDS011;7680;48.800;9.680;2023-05-10T02:21:54;1.55;;;1.35;;
15159;SDS011;7680;48.800;9.680;2023-05-10T02:24:28;1.67;;;1.58;;
15159;SDS011;7680;48.800;9.680;2023-05-10T02:27:02;1.70;;;1.60;;
15159;SDS011;7680;48.800;9.680;2023-05-10T02:29:36;1.95;;;1.77;;
15159;SDS011;7680;48.800;9.680;2023-05-10T02:32:10;1.85;;;1.55;;
15159;SDS011;7680;48.800;9.680;2023-05-10T02:34:46;2.00;;;1.90;;
15159;SDS011;7680;48.800;9.680;2023-05-10T02:37:23;1.92;;;1.83;;
15159;SDS011;7680;48.800;9.680;2023-05-10T02:39:57;1.70;;;1.60;;
15159;SDS011;7680;48.800;9.680;2023-05-10T02:42:31;2.10;;;2.00;;
15159;SDS011;7680;48.800;9.680;2023-05-10T02:45:10;1.90;;;1.80;;
15159;SDS011;7680;48.800;9.680;2023-05-10T02:47:46;1.88;;;1.70;;
15159;SDS011;7680;48.800;9.680;2023-05-10T02:50:21;2.00;;;1.90;;
15159;SDS011;7680;48.800;9.680;2023-05-10T02:52:59;1.88;;;1.77;;
15159;SDS011;7680;48.800;9.680;2023-05-10T02:55:35;2.40;;;2.20;;
15159;SDS011;7680;48.800;9.680;2023-05-10T02:58:13;2.45;;;2.17;;
15159;SDS011;7680;48.800;9.680;2023-05-10T03:00:46;2.33;;;2.17;;
15159;SDS011;7680;48.800;9.680;2023-05-10T03:03:19;2.33;;;2.13;;
15159;SDS011;7680;48.800;9.680;2023-05-10T03:05:53;2.35;;;1.80;;
15159;SDS011;7680;48.800;9.680;2023-05-10T03:08:27;2.13;;;2.03;;
15159;SDS011;7680;48.800;9.680;2023-05-10T03:11:05;2.47;;;2.28;;
15159;SDS011;7680;48.800;9.680;2023-05-10T03:13:56;2.35;;;2.15;;
15159;SDS011;7680;48.800;9.680;2023-05-10T03:16:42;2.38;;;2.25;;
15159;SDS011;7680;48.800;9.680;2023-05-10T03:19:21;2.53;;;2.42;;
15159;SDS011;7680;48.800;9.680;2023-05-10T03:22:03;2.58;;;2.47;;
15159;SDS011;7680;48.800;9.680;2023-05-10T03:24:42;2.50;;;2.30;;
15159;SDS011;7680;48.800;9.680;2023-05-10T03:27:17;2.78;;;2.58;;
15159;SDS011;7680;48.800;9.680;2023-05-10T03:29:51;2.70;;;2.60;;
15159;SDS011;7680;48.800;9.680;2023-05-10T03:32:25;2.70;;;2.50;;
15159;SDS011;7680;48.800;9.680;2023-05-10T03:34:59;2.55;;;2.45;;
15159;SDS011;7680;48.800;9.680;2023-05-10T03:37:34;4.13;;;2.75;;
15159;SDS011;7680;48.800;9.680;2023-05-10T03:40:08;2.80;;;2.60;;
15159;SDS011;7680;48.800;9.680;2023-05-10T03:42:41;2.78;;;2.67;;
15159;SDS011;7680;48.800;9.680;2023-05-10T03:45:14;3.15;;;2.60;;
15159;SDS011;7680;48.800;9.680;2023-05-10T03:47:47;3.15;;;2.90;;
15159;SDS011;7680;48.800;9.680;2023-05-10T03:50:20;3.35;;;2.85;;
15159;SDS011;7680;48.800;9.680;2023-05-10T03:52:55;3.13;;;2.92;;
15159;SDS011;7680;48.800;9.680;2023-05-10T03:55:28;2.60;;;2.40;;
15159;SDS011;7680;48.800;9.680;2023-05-10T03:58:05;2.50;;;2.30;;
15159;SDS011;7680;48.800;9.680;2023-05-10T04:00:38;3.05;;;2.78;;
15159;SDS011;7680;48.800;9.680;2023-05-10T04:03:14;3.63;;;2.75;;
15159;SDS011;7680;48.800;9.680;2023-05-10T04:05:48;2.97;;;2.78;;
15159;SDS011;7680;48.800;9.680;2023-05-10T04:08:22;3.25;;;3.05;;
15159;SDS011;7680;48.800;9.680;2023-05-10T04:11:04;5.75;;;3.55;;
15159;SDS011;7680;48.800;9.680;2023-05-10T04:13:38;3.75;;;3.42;;
15159;SDS011;7680;48.800;9.680;2023-05-10T04:16:11;3.72;;;3.10;;
15159;SDS011;7680;48.800;9.680;2023-05-10T04:18:44;2.80;;;2.60;;
15159;SDS011;7680;48.800;9.680;2023-05-10T04:21:17;3.03;;;2.63;;
15159;SDS011;7680;48.800;9.680;2023-05-10T04:23:53;3.17;;;2.88;;
15159;SDS011;7680;48.800;9.680;2023-05-10T04:26:26;2.75;;;2.60;;
15159;SDS011;7680;48.800;9.680;2023-05-10T04:28:59;2.45;;;2.35;;
15159;SDS011;7680;48.800;9.680;2023-05-10T04:31:32;3.05;;;2.47;;
15159;SDS011;7680;48.800;9.680;2023-05-10T04:34:07;2.30;;;2.20;;
15159;SDS011;7680;48.800;9.680;2023-05-10T04:36:40;2.78;;;2.35;;
15159;SDS011;7680;48.800;9.680;2023-05-10T04:39:14;2.78;;;2.58;;
15159;SDS011;7680;48.800;9.680;2023-05-10T04:41:47;2.78;;;2.50;;
15159;SDS011;7680;48.800;9.680;2023-05-10T04:44:20;2.70;;;2.50;;
15159;SDS011;7680;48.800;9.680;2023-05-10T04:46:53;2.80;;;2.45;;
15159;SDS011;7680;48.800;9.680;2023-05-10T04:49:26;3.00;;;2.70;;
15159;SDS011;7680;48.800;9.680;2023-05-10T04:51:59;3.00;;;2.80;;
15159;SDS011;7680;48.800;9.680;2023-05-10T04:54:33;2.67;;;2.55;;
15159;SDS011;7680;48.800;9.680;2023-05-10T04:57:06;4.35;;;2.65;;
15159;SDS011;7680;48.800;9.680;2023-05-10T04:59:39;2.92;;;2.50;;
15159;SDS011;7680;48.800;9.680;2023-05-10T05:02:13;3.40;;;2.90;;
15159;SDS011;7680;48.800;9.680;2023-05-10T05:04:46;2.63;;;2.42;;
15159;SDS011;7680;48.800;9.680;2023-05-10T05:07:19;2.75;;;2.55;;
15159;SDS011;7680;48.800;9.680;2023-05-10T05:09:54;2.75;;;2.47;;
15159;SDS011;7680;48.800;9.680;2023-05-10T05:12:27;2.72;;;2.63;;
15159;SDS011;7680;48.800;9.680;2023-05-10T05:15:00;2.88;;;2.67;;
15159;SDS011;7680;48.800;9.680;2023-05-10T05:17:33;2.83;;;2.63;;
15159;SDS011;7680;48.800;9.680;2023-05-10T05:20:07;3.00;;;2.80;;
15159;SDS011;7680;48.800;9.680;2023-05-10T05:22:42;2.80;;;2.55;;
15159;SDS011;7680;48.800;9.680;2023-05-10T05:25:16;3.25;;;2.60;;
15159;SDS011;7680;48.800;9.680;2023-05-10T05:27:49;2.72;;;2.53;;
15159;SDS011;7680;48.800;9.680;2023-05-10T05:30:22;3.30;;;3.00;;
15159;SDS011;7680;48.800;9.680;2023-05-10T05:32:55;2.83;;;2.50;;
15159;SDS011;7680;48.800;9.680;2023-05-10T05:35:28;2.47;;;2.28;;
15159;SDS011;7680;48.800;9.680;2023-05-10T05:38:01;2.28;;;2.15;;
15159;SDS011;7680;48.800;9.680;2023-05-10T05:40:35;3.75;;;2.30;;
15159;SDS011;7680;48.800;9.680;2023-05-10T05:43:08;2.60;;;2.40;;
15159;SDS011;7680;48.800;9.680;2023-05-10T05:45:41;3.45;;;2.08;;
15159;SDS011;7680;48.800;9.680;2023-05-10T05:48:14;2.67;;;2.47;;
15159;SDS011;7680;48.800;9.680;2023-05-10T05:50:47;2.17;;;2.08;;
15159;SDS011;7680;48.800;9.680;2023-05-10T05:53:20;2.92;;;2.28;;
15159;SDS011;7680;48.800;9.680;2023-05-10T05:55:55;3.25;;;2.10;;
15159;SDS011;7680;48.800;9.680;2023-05-10T05:58:29;2.38;;;2.17;;
15159;SDS011;7680;48.800;9.680;2023-05-10T06:01:02;2.50;;;2.25;;
15159;SDS011;7680;48.800;9.680;2023-05-10T06:03:36;2.40;;;2.28;;
15159;SDS011;7680;48.800;9.680;2023-05-10T06:06:09;3.08;;;2.60;;
15159;SDS011;7680;48.800;9.680;2023-05-10T06:08:42;2.70;;;2.50;;
15159;SDS011;7680;48.800;9.680;2023-05-10T06:11:16;2.45;;;2.25;;
15159;SDS011;7680;48.800;9.680;2023-05-10T06:13:49;2.80;;;2.45;;
15159;SDS011;7680;48.800;9.680;2023-05-10T06:16:22;2.40;;;2.22;;
15159;SDS011;7680;48.800;9.680;2023-05-10T06:18:55;2.30;;;2.20;;
15159;SDS011;7680;48.800;9.680;2023-05-10T06:21:28;2.25;;;2.13;;
15159;SDS011;7680;48.800;9.680;2023-05-10T06:24:02;2.53;;;2.33;;
15159;SDS011;7680;48.800;9.680;2023-05-10T06:26:37;2.20;;;2.10;;
15159;SDS011;7680;48.800;9.680;2023-05-10T06:29:10;2.35;;;2.15;;
15159;SDS011;7680;48.800;9.680;2023-05-10T06:31:43;2.70;;;2.50;;
15159;SDS011;7680;48.800;9.680;2023-05-10T06:34:17;2.85;;;2.75;;
15159;SDS011;7680;48.800;9.680;2023-05-10T06:36:49;3.22;;;2.30;;
15159;SDS011;7680;48.800;9.680;2023-05-10T06:39:22;2.63;;;2.45;;
15159;SDS011;7680;48.800;9.680;2023-05-10T06:41:57;3.03;;;2.70;;
15159;SDS011;7680;48.800;9.680;2023-05-10T06:44:30;2.92;;;2.72;;
15159;SDS011;7680;48.800;9.680;2023-05-10T06:47:03;2.92;;;2.05;;
15159;SDS011;7680;48.800;9.680;2023-05-10T06:49:36;2.60;;;2.40;;
15159;SDS011;7680;48.800;9.680;2023-05-10T06:52:09;2.40;;;2.20;;
15159;SDS011;7680;48.800;9.680;2023-05-10T06:54:42;2.50;;;2.40;;
15159;SDS011;7680;48.800;9.680;2023-05-10T06:57:17;2.25;;;2.15;;
15159;SDS011;7680;48.800;9.680;2023-05-10T07:00:02;2.78;;;2.58;;
15159;SDS011;7680;48.800;9.680;2023-05-10T07:02:36;2.30;;;2.20;;
15159;SDS011;7680;48.800;9.680;2023-05-10T07:05:09;3.13;;;2.85;;
15159;SDS011;7680;48.800;9.680;2023-05-10T07:07:42;3.00;;;2.78;;
15159;SDS011;7680;48.800;9.680;2023-05-10T07:10:16;2.85;;;2.65;;
15159;SDS011;7680;48.800;9.680;2023-05-10T07:12:50;2.60;;;2.40;;
15159;SDS011;7680;48.800;9.680;2023-05-10T07:15:23;3.70;;;3.40;;
15159;SDS011;7680;48.800;9.680;2023-05-10T07:17:56;4.25;;;3.90;;
15159;SDS011;7680;48.800;9.680;2023-05-10T07:20:29;3.25;;;2.95;;
15159;SDS011;7680;48.800;9.680;2023-05-10T07:23:02;3.25;;;2.90;;
15159;SDS011;7680;48.800;9.680;2023-05-10T07:25:35;3.00;;;2.70;;
15159;SDS011;7680;48.800;9.680;2023-05-10T07:28:10;3.17;;;2.92;;
15159;SDS011;7680;48.800;9.680;2023-05-10T07:30:43;3.08;;;2.70;;
15159;SDS011;7680;48.800;9.680;2023-05-10T07:33:16;3.20;;;2.90;;
15159;SDS011;7680;48.800;9.680;2023-05-10T07:35:49;2.92;;;2.80;;
15159;SDS011;7680;48.800;9.680;2023-05-10T07:38:22;3.40;;;3.10;;
15159;SDS011;7680;48.800;9.680;2023-05-10T07:40:55;3.40;;;3.10;;
15159;SDS011;7680;48.800;9.680;2023-05-10T07:43:30;3.35;;;3.05;;
15159;SDS011;7680;48.800;9.680;2023-05-10T07:46:03;3.53;;;3.22;;
15159;SDS011;7680;48.800;9.680;2023-05-10T07:48:36;4.53;;;3.47;;
15159;SDS011;7680;48.800;9.680;2023-05-10T07:51:09;4.68;;;3.17;;
15159;SDS011;7680;48.800;9.680;2023-05-10T07:53:42;3.67;;;3.38;;
15159;SDS011;7680;48.800;9.680;2023-05-10T07:56:22;4.65;;;3.47;;
15159;SDS011;7680;48.800;9.680;2023-05-10T07:58:59;3.33;;;3.13;;
15159;SDS011;7680;48.800;9.680;2023-05-10T08:01:34;3.65;;;3.35;;
15159;SDS011;7680;48.800;9.680;2023-05-10T08:04:07;3.10;;;2.90;;
15159;SDS011;7680;48.800;9.680;2023-05-10T08:06:41;3.10;;;2.80;;
15159;SDS011;7680;48.800;9.680;2023-05-10T08:09:14;2.65;;;2.33;;
15159;SDS011;7680;48.800;9.680;2023-05-10T08:11:48;2.63;;;2.42;;
15159;SDS011;7680;48.800;9.680;2023-05-10T08:14:23;2.72;;;2.50;;
15159;SDS011;7680;48.800;9.680;2023-05-10T08:16:56;2.40;;;2.20;;
15159;SDS011;7680;48.800;9.680;2023-05-10T08:19:29;2.97;;;2.50;;
15159;SDS011;7680;48.800;9.680;2023-05-10T08:22:02;2.20;;;2.10;;
15159;SDS011;7680;48.800;9.680;2023-05-10T08:24:35;2.42;;;1.90;;
15159;SDS011;7680;48.800;9.680;2023-05-10T08:27:09;2.10;;;2.00;;
15159;SDS011;7680;48.800;9.680;2023-05-10T08:29:43;1.90;;;1.80;;
15159;SDS011;7680;48.800;9.680;2023-05-10T08:32:20;2.20;;;2.10;;
15159;SDS011;7680;48.800;9.680;2023-05-10T08:34:53;2.38;;;2.28;;
15159;SDS011;7680;48.800;9.680;2023-05-10T08:37:29;2.97;;;2.58;;
15159;SDS011;7680;48.800;9.680;2023-05-10T08:40:03;2.63;;;2.30;;
15159;SDS011;7680;48.800;9.680;2023-05-10T08:42:39;3.40;;;1.92;;
15159;SDS011;7680;48.800;9.680;2023-05-10T08:45:17;2.58;;;2.05;;
15159;SDS011;7680;48.800;9.680;2023-05-10T08:47:52;1.88;;;1.73;;
15159;SDS011;7680;48.800;9.680;2023-05-10T08:50:25;1.90;;;1.80;;
15159;SDS011;7680;48.800;9.680;2023-05-10T08:52:59;2.55;;;1.98;;
15159;SDS011;7680;48.800;9.680;2023-05-10T08:55:36;1.77;;;1.67;;
15159;SDS011;7680;48.800;9.680;2023-05-10T08:58:11;2.00;;;1.90;;
15159;SDS011;7680;48.800;9.680;2023-05-10T09:00:45;1.67;;;1.67;;
15159;SDS011;7680;48.800;9.680;2023-05-10T09:03:20;2.30;;;2.10;;
15159;SDS011;7680;48.800;9.680;2023-05-10T09:05:53;4.68;;;3.67;;
15159;SDS011;7680;48.800;9.680;2023-05-10T09:08:27;4.30;;;3.70;;
15159;SDS011;7680;48.800;9.680;2023-05-10T09:11:01;2.72;;;2.30;;
15159;SDS011;7680;48.800;9.680;2023-05-10T09:13:35;3.13;;;2.60;;
15159;SDS011;7680;48.800;9.680;2023-05-10T09:16:09;2.10;;;2.00;;
15159;SDS011;7680;48.800;9.680;2023-05-10T09:18:51;5.45;;;3.70;;
15159;SDS011;7680;48.800;9.680;2023-05-10T09:21:24;6.10;;;4.28;;
15159;SDS011;7680;48.800;9.680;2023-05-10T09:23:58;15.00;;;8.98;;
15159;SDS011;7680;48.800;9.680;2023-05-10T09:26:35;20.15;;;11.55;;
15159;SDS011;7680;48.800;9.680;2023-05-10T09:29:19;8.52;;;4.68;;
15159;SDS011;7680;48.800;9.680;2023-05-10T09:31:53;8.30;;;4.63;;
15159;SDS011;7680;48.800;9.680;2023-05-10T09:34:28;4.78;;;3.70;;
15159;SDS011;7680;48.800;9.680;2023-05-10T09:37:02;6.95;;;5.70;;
15159;SDS011;7680;48.800;9.680;2023-05-10T09:39:36;3.75;;;3.40;;
15159;SDS011;7680;48.800;9.680;2023-05-10T09:42:10;3.10;;;2.85;;
15159;SDS011;7680;48.800;9.680;2023-05-10T09:44:43;3.00;;;2.70;;
15159;SDS011;7680;48.800;9.680;2023-05-10T09:47:20;2.92;;;2.72;;
15159;SDS011;7680;48.800;9.680;2023-05-10T09:49:53;1.80;;;1.50;;
15159;SDS011;7680;48.800;9.680;2023-05-10T09:52:29;1.92;;;1.83;;
15159;SDS011;7680;48.800;9.680;2023-05-10T09:55:02;2.28;;;1.58;;
15159;SDS011;7680;48.800;9.680;2023-05-10T09:57:36;1.75;;;1.50;;
15159;SDS011;7680;48.800;9.680;2023-05-10T10:00:09;3.28;;;1.90;;
15159;SDS011;7680;48.800;9.680;2023-05-10T10:02:55;1.92;;;1.60;;
15159;SDS011;7680;48.800;9.680;2023-05-10T10:05:30;2.22;;;2.13;;
15159;SDS011;7680;48.800;9.680;2023-05-10T10:08:05;1.77;;;1.67;;
15159;SDS011;7680;48.800;9.680;2023-05-10T10:10:39;1.50;;;1.40;;
15159;SDS011;7680;48.800;9.680;2023-05-10T10:13:12;1.67;;;1.45;;
15159;SDS011;7680;48.800;9.680;2023-05-10T10:15:46;2.58;;;1.80;;
15159;SDS011;7680;48.800;9.680;2023-05-10T10:18:23;1.88;;;1.58;;
15159;SDS011;7680;48.800;9.680;2023-05-10T10:20:58;2.78;;;1.48;;
15159;SDS011;7680;48.800;9.680;2023-05-10T10:23:31;1.42;;;1.42;;
15159;SDS011;7680;48.800;9.680;2023-05-10T10:26:04;1.83;;;1.30;;
15159;SDS011;7680;48.800;9.680;2023-05-10T10:28:39;2.05;;;1.50;;
15159;SDS011;7680;48.800;9.680;2023-05-10T10:31:32;2.30;;;2.00;;
15159;SDS011;7680;48.800;9.680;2023-05-10T10:34:17;1.50;;;1.35;;
15159;SDS011;7680;48.800;9.680;2023-05-10T10:37:03;1.80;;;1.70;;
15159;SDS011;7680;48.800;9.680;2023-05-10T10:39:37;2.00;;;1.42;;
15159;SDS011;7680;48.800;9.680;2023-05-10T10:42:10;1.45;;;1.35;;
15159;SDS011;7680;48.800;9.680;2023-05-10T10:44:43;2.38;;;2.08;;
15159;SDS011;7680;48.800;9.680;2023-05-10T10:47:23;2.15;;;1.60;;
15159;SDS011;7680;48.800;9.680;2023-05-10T10:50:03;1.40;;;1.30;;
15159;SDS011;7680;48.800;9.680;2023-05-10T10:52:39;1.27;;;1.27;;
15159;SDS011;7680;48.800;9.680;2023-05-10T10:55:13;3.08;;;1.38;;
15159;SDS011;7680;48.800;9.680;2023-05-10T10:57:50;3.17;;;1.67;;
15159;SDS011;7680;48.800;9.680;2023-05-10T11:00:31;2.17;;;1.90;;
15159;SDS011;7680;48.800;9.680;2023-05-10T11:03:06;1.50;;;1.40;;
15159;SDS011;7680;48.800;9.680;2023-05-10T11:05:46;1.60;;;1.38;;
15159;SDS011;7680;48.800;9.680;2023-05-10T11:08:23;1.77;;;1.20;;
15159;SDS011;7680;48.800;9.680;2023-05-10T11:11:03;1.17;;;1.17;;
15159;SDS011;7680;48.800;9.680;2023-05-10T11:13:42;1.92;;;1.52;;
15159;SDS011;7680;48.800;9.680;2023-05-10T11:16:20;1.50;;;1.00;;
15159;SDS011;7680;48.800;9.680;2023-05-10T11:18:59;2.22;;;1.20;;
15159;SDS011;7680;48.800;9.680;2023-05-10T11:21:44;1.48;;;1.02;;
15159;SDS011;7680;48.800;9.680;2023-05-10T11:24:20;1.88;;;1.30;;
15159;SDS011;7680;48.800;9.680;2023-05-10T11:26:54;1.45;;;1.40;;
15159;SDS011;7680;48.800;9.680;2023-05-10T11:29:28;1.20;;;1.02;;
15159;SDS011;7680;48.800;9.680;2023-05-10T11:32:01;1.35;;;1.30;;
15159;SDS011;7680;48.800;9.680;2023-05-10T11:34:39;1.77;;;1.20;;
15159;SDS011;7680;48.800;9.680;2023-05-10T11:37:13;1.63;;;1.23;;
15159;SDS011;7680;48.800;9.680;2023-05-10T11:39:46;1.08;;;1.08;;
15159;SDS011;7680;48.800;9.680;2023-05-10T11:42:19;1.40;;;1.30;;
15159;SDS011;7680;48.800;9.680;2023-05-10T11:44:52;1.40;;;1.30;;
15159;SDS011;7680;48.800;9.680;2023-05-10T11:47:25;1.48;;;1.33;;
15159;SDS011;7680;48.800;9.680;2023-05-10T11:49:59;1.40;;;1.10;;
15159;SDS011;7680;48.800;9.680;2023-05-10T11:52:36;1.10;;;1.10;;
15159;SDS011;7680;48.800;9.680;2023-05-10T11:55:09;1.98;;;1.50;;
15159;SDS011;7680;48.800;9.680;2023-05-10T11:57:42;1.35;;;1.20;;
15159;SDS011;7680;48.800;9.680;2023-05-10T12:00:17;1.60;;;1.50;;
15159;SDS011;7680;48.800;9.680;2023-05-10T12:02:50;1.40;;;1.25;;
15159;SDS011;7680;48.800;9.680;2023-05-10T12:05:23;1.13;;;1.02;;
15159;SDS011;7680;48.800;9.680;2023-05-10T12:08:11;1.20;;;1.20;;
15159;SDS011;7680;48.800;9.680;2023-05-10T12:10:45;1.92;;;1.30;;
15159;SDS011;7680;48.800;9.680;2023-05-10T12:13:19;1.40;;;1.30;;
15159;SDS011;7680;48.800;9.680;2023-05-10T12:15:52;1.10;;;1.00;;
15159;SDS011;7680;48.800;9.680;2023-05-10T12:18:26;1.83;;;1.10;;
15159;SDS011;7680;48.800;9.680;2023-05-10T12:21:02;1.30;;;1.27;;
15159;SDS011;7680;48.800;9.680;2023-05-10T12:23:38;1.10;;;1.10;;
15159;SDS011;7680;48.800;9.680;2023-05-10T12:26:11;1.25;;;1.10;;
15159;SDS011;7680;48.800;9.680;2023-05-10T12:28:44;2.28;;;1.33;;
15159;SDS011;7680;48.800;9.680;2023-05-10T12:31:17;1.98;;;1.20;;
15159;SDS011;7680;48.800;9.680;2023-05-10T12:33:51;1.10;;;1.10;;
15159;SDS011;7680;48.800;9.680;2023-05-10T12:36:23;1.60;;;1.33;;
15159;SDS011;7680;48.800;9.680;2023-05-10T12:39:03;1.80;;;1.08;;
15159;SDS011;7680;48.800;9.680;2023-05-10T12:41:36;1.42;;;1.30;;
15159;SDS011;7680;48.800;9.680;2023-05-10T12:44:13;1.85;;;1.38;;
15159;SDS011;7680;48.800;9.680;2023-05-10T12:46:45;2.08;;;1.23;;
15159;SDS011;7680;48.800;9.680;2023-05-10T12:49:18;1.42;;;1.20;;
15159;SDS011;7680;48.800;9.680;2023-05-10T12:51:51;1.70;;;1.38;;
15159;SDS011;7680;48.800;9.680;2023-05-10T12:54:26;1.48;;;1.38;;
15159;SDS011;7680;48.800;9.680;2023-05-10T12:56:59;1.30;;;1.20;;
15159;SDS011;7680;48.800;9.680;2023-05-10T12:59:32;1.90;;;1.40;;
15159;SDS011;7680;48.800;9.680;2023-05-10T13:02:08;2.42;;;1.40;;
15159;SDS011;7680;48.800;9.680;2023-05-10T13:04:41;1.42;;;1.33;;
15159;SDS011;7680;48.800;9.680;2023-05-10T13:07:14;1.75;;;1.50;;
15159;SDS011;7680;48.800;9.680;2023-05-10T13:09:49;3.78;;;1.67;;
15159;SDS011;7680;48.800;9.680;2023-05-10T13:12:22;1.83;;;1.73;;
15159;SDS011;7680;48.800;9.680;2023-05-10T13:14:54;2.20;;;2.00;;
15159;SDS011;7680;48.800;9.680;2023-05-10T13:17:28;2.83;;;1.75;;
15159;SDS011;7680;48.800;9.680;2023-05-10T13:20:04;2.38;;;1.80;;
15159;SDS011;7680;48.800;9.680;2023-05-10T13:22:38;1.88;;;1.70;;
15159;SDS011;7680;48.800;9.680;2023-05-10T13:25:13;2.88;;;2.20;;
15159;SDS011;7680;48.800;9.680;2023-05-10T13:27:46;2.15;;;1.95;;
15159;SDS011;7680;48.800;9.680;2023-05-10T13:30:19;2.10;;;1.92;;
15159;SDS011;7680;48.800;9.680;2023-05-10T13:32:52;1.98;;;1.80;;
15159;SDS011;7680;48.800;9.680;2023-05-10T13:35:25;3.08;;;1.63;;
15159;SDS011;7680;48.800;9.680;2023-05-10T13:37:58;2.65;;;1.80;;
15159;SDS011;7680;48.800;9.680;2023-05-10T13:40:32;4.82;;;2.20;;
15159;SDS011;7680;48.800;9.680;2023-05-10T13:43:05;3.22;;;2.20;;
15159;SDS011;7680;48.800;9.680;2023-05-10T13:45:38;1.77;;;1.67;;
15159;SDS011;7680;48.800;9.680;2023-05-10T13:48:12;3.00;;;2.25;;
15159;SDS011;7680;48.800;9.680;2023-05-10T13:50:44;1.75;;;1.65;;
15159;SDS011;7680;48.800;9.680;2023-05-10T13:53:18;1.70;;;1.60;;
15159;SDS011;7680;48.800;9.680;2023-05-10T13:55:52;2.22;;;1.90;;
15159;SDS011;7680;48.800;9.680;2023-05-10T13:58:25;2.47;;;1.83;;
15159;SDS011;7680;48.800;9.680;2023-05-10T14:00:58;2.00;;;1.80;;
15159;SDS011;7680;48.800;9.680;2023-05-10T14:03:31;2.47;;;1.90;;
15159;SDS011;7680;48.800;9.680;2023-05-10T14:06:04;2.20;;;1.90;;
15159;SDS011;7680;48.800;9.680;2023-05-10T14:08:38;2.13;;;2.03;;
15159;SDS011;7680;48.800;9.680;2023-05-10T14:11:12;2.60;;;2.15;;
15159;SDS011;7680;48.800;9.680;2023-05-10T14:13:46;2.50;;;2.30;;
15159;SDS011;7680;48.800;9.680;2023-05-10T14:16:19;3.50;;;2.70;;
15159;SDS011;7680;48.800;9.680;2023-05-10T14:18:52;2.88;;;2.33;;
15159;SDS011;7680;48.800;9.680;2023-05-10T14:21:25;2.28;;;2.08;;
15159;SDS011;7680;48.800;9.680;2023-05-10T14:23:59;2.50;;;1.90;;
15159;SDS011;7680;48.800;9.680;2023-05-10T14:26:34;2.78;;;2.40;;
15159;SDS011;7680;48.800;9.680;2023-05-10T14:29:07;4.40;;;2.00;;
15159;SDS011;7680;48.800;9.680;2023-05-10T14:31:42;2.10;;;1.90;;
15159;SDS011;7680;48.800;9.680;2023-05-10T14:34:15;2.92;;;2.10;;
15159;SDS011;7680;48.800;9.680;2023-05-10T14:36:48;2.78;;;1.80;;
15159;SDS011;7680;48.800;9.680;2023-05-10T14:39:21;3.08;;;2.10;;
15159;SDS011;7680;48.800;9.680;2023-05-10T14:41:56;2.88;;;2.10;;
15159;SDS011;7680;48.800;9.680;2023-05-10T14:44:29;2.95;;;2.20;;
15159;SDS011;7680;48.800;9.680;2023-05-10T14:47:02;2.85;;;2.20;;
15159;SDS011;7680;48.800;9.680;2023-05-10T14:49:35;2.92;;;1.92;;
15159;SDS011;7680;48.800;9.680;2023-05-10T14:52:09;2.63;;;2.10;;
15159;SDS011;7680;48.800;9.680;2023-05-10T14:54:43;3.08;;;2.10;;
15159;SDS011;7680;48.800;9.680;2023-05-10T14:57:17;3.20;;;1.90;;
15159;SDS011;7680;48.800;9.680;2023-05-10T14:59:50;2.17;;;1.95;;
15159;SDS011;7680;48.800;9.680;2023-05-10T15:02:24;3.38;;;2.10;;
15159;SDS011;7680;48.800;9.680;2023-05-10T15:04:57;3.22;;;1.90;;
15159;SDS011;7680;48.800;9.680;2023-05-10T15:07:31;2.40;;;2.20;;
15159;SDS011;7680;48.800;9.680;2023-05-10T15:10:04;2.35;;;2.13;;
15159;SDS011;7680;48.800;9.680;2023-05-10T15:12:40;2.25;;;2.05;;
15159;SDS011;7680;48.800;9.680;2023-05-10T15:15:13;4.07;;;2.20;;
15159;SDS011;7680;48.800;9.680;2023-05-10T15:17:47;1.80;;;1.70;;
15159;SDS011;7680;48.800;9.680;2023-05-10T15:20:20;3.05;;;1.73;;
15159;SDS011;7680;48.800;9.680;2023-05-10T15:22:53;2.90;;;1.80;;
15159;SDS011;7680;48.800;9.680;2023-05-10T15:25:26;2.17;;;1.90;;
15159;SDS011;7680;48.800;9.680;2023-05-10T15:28:01;2.20;;;2.00;;
15159;SDS011;7680;48.800;9.680;2023-05-10T15:30:34;2.20;;;2.00;;
15159;SDS011;7680;48.800;9.680;2023-05-10T15:33:07;2.42;;;1.90;;
15159;SDS011;7680;48.800;9.680;2023-05-10T15:35:40;3.80;;;2.03;;
15159;SDS011;7680;48.800;9.680;2023-05-10T15:38:13;2.40;;;2.20;;
15159;SDS011;7680;48.800;9.680;2023-05-10T15:40:46;2.55;;;1.90;;
15159;SDS011;7680;48.800;9.680;2023-05-10T15:43:20;2.30;;;1.75;;
15159;SDS011;7680;48.800;9.680;2023-05-10T15:45:53;2.22;;;2.03;;